sensor_id;sensor_type;location;lat;lon;timestamp;P1;durP1;ratioP1;P2;durP2;ratioP2
27666;SDS011;15074;50.940;5.282;2023-02-01T00:00:44;21.25;;;9.68;;
27666;SDS011;15074;50.940;5.282;2023-02-01T00:03:10;21.08;;;11.63;;
27666;SDS011;15074;50.940;5.282;2023-02-01T00:05:37;24.17;;;9.83;;
27666;SDS011;15074;50.940;5.282;2023-02-01T00:08:03;21.92;;;9.48;;
27666;SDS011;15074;50.940;5.282;2023-02-01T00:10:29;33.28;;;11.13;;
27666;SDS011;15074;50.940;5.282;2023-02-01T00:12:55;22.30;;;11.07;;
27666;SDS011;15074;50.940;5.282;2023-02-01T00:15:20;17.73;;;10.18;;
27666;SDS011;15074;50.940;5.282;2023-02-01T00:17:48;28.08;;;10.50;;
27666;SDS011;15074;50.940;5.282;2023-02-01T00:20:17;20.05;;;10.35;;
27666;SDS011;15074;50.940;5.282;2023-02-01T00:22:43;25.90;;;11.90;;
27666;SDS011;15074;50.940;5.282;2023-02-01T00:25:09;30.33;;;14.25;;
27666;SDS011;15074;50.940;5.282;2023-02-01T00:27:34;29.02;;;12.93;;
27666;SDS011;15074;50.940;5.282;2023-02-01T00:30:00;30.50;;;12.38;;
27666;SDS011;15074;50.940;5.282;2023-02-01T00:32:26;25.65;;;13.10;;
27666;SDS011;15074;50.940;5.282;2023-02-01T00:34:51;25.55;;;11.73;;
27666;SDS011;15074;50.940;5.282;2023-02-01T00:37:17;22.55;;;11.82;;
27666;SDS011;15074;50.940;5.282;2023-02-01T00:39:43;30.92;;;12.80;;
27666;SDS011;15074;50.940;5.282;2023-02-01T00:42:08;28.58;;;13.50;;
27666;SDS011;15074;50.940;5.282;2023-02-01T00:44:34;25.67;;;12.98;;
27666;SDS011;15074;50.940;5.282;2023-02-01T00:47:00;24.85;;;12.05;;
27666;SDS011;15074;50.940;5.282;2023-02-01T00:49:27;22.55;;;12.40;;
27666;SDS011;15074;50.940;5.282;2023-02-01T00:51:53;19.48;;;11.55;;
27666;SDS011;15074;50.940;5.282;2023-02-01T00:54:19;18.35;;;11.15;;
27666;SDS011;15074;50.940;5.282;2023-02-01T00:56:44;22.42;;;11.55;;
27666;SDS011;15074;50.940;5.282;2023-02-01T00:59:11;26.95;;;11.13;;
27666;SDS011;15074;50.940;5.282;2023-02-01T01:01:37;18.85;;;10.57;;
27666;SDS011;15074;50.940;5.282;2023-02-01T01:04:03;25.83;;;11.30;;
27666;SDS011;15074;50.940;5.282;2023-02-01T01:06:30;17.08;;;10.52;;
27666;SDS011;15074;50.940;5.282;2023-02-01T01:08:58;23.88;;;10.45;;
27666;SDS011;15074;50.940;5.282;2023-02-01T01:11:26;26.92;;;11.00;;
27666;SDS011;15074;50.940;5.282;2023-02-01T01:13:54;30.50;;;10.43;;
27666;SDS011;15074;50.940;5.282;2023-02-01T01:16:22;34.30;;;9.82;;
27666;SDS011;15074;50.940;5.282;2023-02-01T01:18:49;22.02;;;12.00;;
27666;SDS011;15074;50.940;5.282;2023-02-01T01:21:15;24.27;;;12.10;;
27666;SDS011;15074;50.940;5.282;2023-02-01T01:23:42;25.92;;;11.95;;
27666;SDS011;15074;50.940;5.282;2023-02-01T01:26:13;27.25;;;12.88;;
27666;SDS011;15074;50.940;5.282;2023-02-01T01:28:41;21.65;;;12.40;;
27666;SDS011;15074;50.940;5.282;2023-02-01T01:31:10;27.77;;;13.65;;
27666;SDS011;15074;50.940;5.282;2023-02-01T01:33:37;31.80;;;12.43;;
27666;SDS011;15074;50.940;5.282;2023-02-01T01:36:09;27.92;;;13.13;;
27666;SDS011;15074;50.940;5.282;2023-02-01T01:38:36;31.67;;;13.73;;
27666;SDS011;15074;50.940;5.282;2023-02-01T01:41:03;28.20;;;13.48;;
27666;SDS011;15074;50.940;5.282;2023-02-01T01:46:28;29.27;;;14.00;;
27666;SDS011;15074;50.940;5.282;2023-02-01T01:48:58;37.03;;;14.80;;
27666;SDS011;15074;50.940;5.282;2023-02-01T01:51:31;25.52;;;14.35;;
27666;SDS011;15074;50.940;5.282;2023-02-01T01:54:12;32.95;;;16.40;;
27666;SDS011;15074;50.940;5.282;2023-02-01T01:56:42;32.70;;;17.90;;
27666;SDS011;15074;50.940;5.282;2023-02-01T01:59:10;34.15;;;14.80;;
27666;SDS011;15074;50.940;5.282;2023-02-01T02:01:37;42.15;;;17.38;;
27666;SDS011;15074;50.940;5.282;2023-02-01T02:04:03;29.08;;;14.27;;
27666;SDS011;15074;50.940;5.282;2023-02-01T02:07:13;38.78;;;17.13;;
27666;SDS011;15074;50.940;5.282;2023-02-01T02:09:24;28.15;;;13.52;;
27666;SDS011;15074;50.940;5.282;2023-02-01T02:11:50;25.10;;;13.55;;
27666;SDS011;15074;50.940;5.282;2023-02-01T02:14:16;25.48;;;14.65;;
27666;SDS011;15074;50.940;5.282;2023-02-01T02:19:41;29.30;;;12.30;;
27666;SDS011;15074;50.940;5.282;2023-02-01T02:30:17;15.38;;;6.93;;
27666;SDS011;15074;50.940;5.282;2023-02-01T02:38:52;15.13;;;6.22;;
27666;SDS011;15074;50.940;5.282;2023-02-01T02:41:54;13.20;;;5.22;;
27666;SDS011;15074;50.940;5.282;2023-02-01T02:45:06;17.52;;;4.25;;
27666;SDS011;15074;50.940;5.282;2023-02-01T02:47:54;13.15;;;3.90;;
27666;SDS011;15074;50.940;5.282;2023-02-01T02:51:04;23.77;;;3.70;;
27666;SDS011;15074;50.940;5.282;2023-02-01T02:53:58;18.13;;;4.88;;
27666;SDS011;15074;50.940;5.282;2023-02-01T02:56:44;13.95;;;4.03;;
27666;SDS011;15074;50.940;5.282;2023-02-01T02:59:28;21.30;;;3.95;;
27666;SDS011;15074;50.940;5.282;2023-02-01T03:02:14;10.48;;;2.75;;
27666;SDS011;15074;50.940;5.282;2023-02-01T03:04:59;11.48;;;3.42;;
27666;SDS011;15074;50.940;5.282;2023-02-01T03:10:55;13.52;;;3.15;;
27666;SDS011;15074;50.940;5.282;2023-02-01T03:13:06;16.75;;;2.80;;
27666;SDS011;15074;50.940;5.282;2023-02-01T03:15:45;11.07;;;2.85;;
27666;SDS011;15074;50.940;5.282;2023-02-01T03:18:23;10.65;;;2.97;;
27666;SDS011;15074;50.940;5.282;2023-02-01T03:21:08;16.30;;;3.20;;
27666;SDS011;15074;50.940;5.282;2023-02-01T03:23:37;13.98;;;3.92;;
27666;SDS011;15074;50.940;5.282;2023-02-01T03:26:03;12.82;;;3.42;;
27666;SDS011;15074;50.940;5.282;2023-02-01T03:28:33;15.02;;;3.45;;
27666;SDS011;15074;50.940;5.282;2023-02-01T03:31:01;10.35;;;4.03;;
27666;SDS011;15074;50.940;5.282;2023-02-01T03:33:27;14.48;;;3.00;;
27666;SDS011;15074;50.940;5.282;2023-02-01T03:36:03;12.40;;;3.30;;
27666;SDS011;15074;50.940;5.282;2023-02-01T03:46:52;12.10;;;2.40;;
27666;SDS011;15074;50.940;5.282;2023-02-01T03:49:23;22.92;;;3.47;;
27666;SDS011;15074;50.940;5.282;2023-02-01T03:51:55;13.32;;;3.08;;
27666;SDS011;15074;50.940;5.282;2023-02-01T03:54:24;13.90;;;3.67;;
27666;SDS011;15074;50.940;5.282;2023-02-01T03:56:52;9.18;;;2.65;;
27666;SDS011;15074;50.940;5.282;2023-02-01T03:59:21;14.52;;;3.47;;
27666;SDS011;15074;50.940;5.282;2023-02-01T04:01:47;12.05;;;4.75;;
27666;SDS011;15074;50.940;5.282;2023-02-01T04:04:13;11.13;;;3.47;;
27666;SDS011;15074;50.940;5.282;2023-02-01T04:06:45;17.88;;;5.28;;
27666;SDS011;15074;50.940;5.282;2023-02-01T04:09:12;12.00;;;2.28;;
27666;SDS011;15074;50.940;5.282;2023-02-01T04:11:37;10.05;;;3.17;;
27666;SDS011;15074;50.940;5.282;2023-02-01T04:14:03;16.52;;;4.38;;
27666;SDS011;15074;50.940;5.282;2023-02-01T04:16:30;19.85;;;4.88;;
27666;SDS011;15074;50.940;5.282;2023-02-01T04:18:57;17.33;;;3.70;;
27666;SDS011;15074;50.940;5.282;2023-02-01T04:21:25;17.20;;;4.68;;
27666;SDS011;15074;50.940;5.282;2023-02-01T04:23:51;13.00;;;4.78;;
27666;SDS011;15074;50.940;5.282;2023-02-01T04:26:17;16.77;;;3.67;;
27666;SDS011;15074;50.940;5.282;2023-02-01T04:28:44;10.23;;;3.10;;
27666;SDS011;15074;50.940;5.282;2023-02-01T04:33:38;11.43;;;3.25;;
27666;SDS011;15074;50.940;5.282;2023-02-01T04:36:04;15.57;;;3.80;;
27666;SDS011;15074;50.940;5.282;2023-02-01T04:38:30;12.90;;;4.25;;
27666;SDS011;15074;50.940;5.282;2023-02-01T05:00:54;22.00;;;3.25;;
27666;SDS011;15074;50.940;5.282;2023-02-01T05:03:20;11.88;;;2.72;;
27666;SDS011;15074;50.940;5.282;2023-02-01T05:05:49;15.43;;;3.33;;
27666;SDS011;15074;50.940;5.282;2023-02-01T05:08:15;16.67;;;3.65;;
27666;SDS011;15074;50.940;5.282;2023-02-01T05:10:40;12.73;;;3.28;;
27666;SDS011;15074;50.940;5.282;2023-02-01T05:13:07;15.73;;;3.90;;
27666;SDS011;15074;50.940;5.282;2023-02-01T05:18:41;12.50;;;2.92;;
27666;SDS011;15074;50.940;5.282;2023-02-01T05:21:13;13.73;;;3.35;;
27666;SDS011;15074;50.940;5.282;2023-02-01T05:52:33;17.55;;;3.50;;
27666;SDS011;15074;50.940;5.282;2023-02-01T05:54:59;19.30;;;3.60;;
27666;SDS011;15074;50.940;5.282;2023-02-01T05:57:24;21.33;;;4.13;;
27666;SDS011;15074;50.940;5.282;2023-02-01T05:59:50;16.95;;;3.22;;
27666;SDS011;15074;50.940;5.282;2023-02-01T06:02:16;12.07;;;3.33;;
27666;SDS011;15074;50.940;5.282;2023-02-01T06:04:42;13.48;;;2.50;;
27666;SDS011;15074;50.940;5.282;2023-02-01T06:07:08;9.50;;;3.90;;
27666;SDS011;15074;50.940;5.282;2023-02-01T06:09:35;14.40;;;4.43;;
27666;SDS011;15074;50.940;5.282;2023-02-01T06:12:01;15.80;;;3.70;;
27666;SDS011;15074;50.940;5.282;2023-02-01T06:14:30;14.02;;;4.22;;
27666;SDS011;15074;50.940;5.282;2023-02-01T06:16:56;21.15;;;4.97;;
27666;SDS011;15074;50.940;5.282;2023-02-01T06:19:21;20.40;;;4.43;;
27666;SDS011;15074;50.940;5.282;2023-02-01T06:21:47;17.50;;;3.97;;
27666;SDS011;15074;50.940;5.282;2023-02-01T06:24:13;13.05;;;4.03;;
27666;SDS011;15074;50.940;5.282;2023-02-01T06:26:39;20.58;;;5.40;;
27666;SDS011;15074;50.940;5.282;2023-02-01T06:29:06;14.65;;;4.88;;
27666;SDS011;15074;50.940;5.282;2023-02-01T06:31:32;12.23;;;4.90;;
27666;SDS011;15074;50.940;5.282;2023-02-01T06:33:58;16.13;;;5.10;;
27666;SDS011;15074;50.940;5.282;2023-02-01T06:36:24;11.40;;;4.60;;
27666;SDS011;15074;50.940;5.282;2023-02-01T06:38:50;18.00;;;5.15;;
27666;SDS011;15074;50.940;5.282;2023-02-01T06:41:17;11.45;;;4.85;;
27666;SDS011;15074;50.940;5.282;2023-02-01T06:43:42;12.27;;;4.85;;
27666;SDS011;15074;50.940;5.282;2023-02-01T07:35:20;10.35;;;3.60;;
27666;SDS011;15074;50.940;5.282;2023-02-01T08:01:04;16.23;;;3.85;;
27666;SDS011;15074;50.940;5.282;2023-02-01T08:03:45;24.20;;;5.13;;
27666;SDS011;15074;50.940;5.282;2023-02-01T08:06:12;13.00;;;3.15;;
27666;SDS011;15074;50.940;5.282;2023-02-01T08:08:38;13.07;;;2.70;;
27666;SDS011;15074;50.940;5.282;2023-02-01T08:11:04;28.42;;;4.05;;
27666;SDS011;15074;50.940;5.282;2023-02-01T08:13:32;20.87;;;4.93;;
27666;SDS011;15074;50.940;5.282;2023-02-01T08:15:59;15.65;;;3.60;;
27666;SDS011;15074;50.940;5.282;2023-02-01T08:18:26;16.38;;;3.95;;
27666;SDS011;15074;50.940;5.282;2023-02-01T08:20:52;15.90;;;3.33;;
27666;SDS011;15074;50.940;5.282;2023-02-01T08:23:18;8.13;;;3.08;;
27666;SDS011;15074;50.940;5.282;2023-02-01T08:25:44;11.68;;;4.90;;
27666;SDS011;15074;50.940;5.282;2023-02-01T08:28:11;16.40;;;5.68;;
27666;SDS011;15074;50.940;5.282;2023-02-01T08:30:37;16.70;;;6.88;;
27666;SDS011;15074;50.940;5.282;2023-02-01T08:33:09;17.90;;;4.25;;
27666;SDS011;15074;50.940;5.282;2023-02-01T08:35:35;9.68;;;3.90;;
27666;SDS011;15074;50.940;5.282;2023-02-01T08:38:02;12.65;;;3.67;;
27666;SDS011;15074;50.940;5.282;2023-02-01T08:40:27;21.35;;;4.25;;
27666;SDS011;15074;50.940;5.282;2023-02-01T08:42:54;21.83;;;5.90;;
27666;SDS011;15074;50.940;5.282;2023-02-01T08:45:21;16.25;;;5.18;;
27666;SDS011;15074;50.940;5.282;2023-02-01T08:47:52;13.70;;;4.93;;
27666;SDS011;15074;50.940;5.282;2023-02-01T08:50:18;19.42;;;5.45;;
27666;SDS011;15074;50.940;5.282;2023-02-01T08:52:45;18.25;;;4.72;;
27666;SDS011;15074;50.940;5.282;2023-02-01T08:55:12;22.05;;;4.82;;
27666;SDS011;15074;50.940;5.282;2023-02-01T08:57:38;11.52;;;3.97;;
27666;SDS011;15074;50.940;5.282;2023-02-01T09:00:05;15.32;;;4.90;;
27666;SDS011;15074;50.940;5.282;2023-02-01T09:02:33;12.90;;;3.95;;
27666;SDS011;15074;50.940;5.282;2023-02-01T09:04:58;19.15;;;5.47;;
27666;SDS011;15074;50.940;5.282;2023-02-01T09:07:24;15.77;;;3.63;;
27666;SDS011;15074;50.940;5.282;2023-02-01T09:09:50;7.40;;;2.85;;
27666;SDS011;15074;50.940;5.282;2023-02-01T09:12:16;12.52;;;2.67;;
27666;SDS011;15074;50.940;5.282;2023-02-01T09:14:41;23.08;;;4.07;;
27666;SDS011;15074;50.940;5.282;2023-02-01T09:17:07;13.02;;;4.13;;
27666;SDS011;15074;50.940;5.282;2023-02-01T09:19:33;15.70;;;2.88;;
27666;SDS011;15074;50.940;5.282;2023-02-01T09:21:58;11.20;;;3.08;;
27666;SDS011;15074;50.940;5.282;2023-02-01T09:24:24;12.80;;;3.55;;
27666;SDS011;15074;50.940;5.282;2023-02-01T09:26:50;15.75;;;3.50;;
27666;SDS011;15074;50.940;5.282;2023-02-01T09:29:16;17.20;;;3.53;;
27666;SDS011;15074;50.940;5.282;2023-02-01T09:31:42;11.95;;;2.90;;
27666;SDS011;15074;50.940;5.282;2023-02-01T09:34:08;10.13;;;2.60;;
27666;SDS011;15074;50.940;5.282;2023-02-01T09:36:34;16.30;;;3.13;;
27666;SDS011;15074;50.940;5.282;2023-02-01T09:39:01;15.18;;;3.30;;
27666;SDS011;15074;50.940;5.282;2023-02-01T09:46:44;13.82;;;4.20;;
27666;SDS011;15074;50.940;5.282;2023-02-01T09:49:15;13.93;;;3.33;;
27666;SDS011;15074;50.940;5.282;2023-02-01T09:51:48;11.85;;;2.97;;
27666;SDS011;15074;50.940;5.282;2023-02-01T09:54:17;15.07;;;3.30;;
27666;SDS011;15074;50.940;5.282;2023-02-01T09:56:47;8.77;;;2.72;;
27666;SDS011;15074;50.940;5.282;2023-02-01T10:01:59;16.40;;;3.78;;
27666;SDS011;15074;50.940;5.282;2023-02-01T10:04:27;10.85;;;2.47;;
27666;SDS011;15074;50.940;5.282;2023-02-01T10:15:15;14.63;;;2.75;;
27666;SDS011;15074;50.940;5.282;2023-02-01T10:21:10;13.10;;;2.88;;
27666;SDS011;15074;50.940;5.282;2023-02-01T10:26:21;9.73;;;3.28;;
27666;SDS011;15074;50.940;5.282;2023-02-01T10:28:53;11.45;;;3.90;;
27666;SDS011;15074;50.940;5.282;2023-02-01T10:31:28;10.60;;;2.97;;
27666;SDS011;15074;50.940;5.282;2023-02-01T10:33:57;13.00;;;2.67;;
27666;SDS011;15074;50.940;5.282;2023-02-01T10:36:32;19.02;;;3.92;;
27666;SDS011;15074;50.940;5.282;2023-02-01T10:39:05;8.93;;;3.03;;
27666;SDS011;15074;50.940;5.282;2023-02-01T10:41:35;14.60;;;3.33;;
27666;SDS011;15074;50.940;5.282;2023-02-01T10:44:05;19.02;;;2.92;;
27666;SDS011;15074;50.940;5.282;2023-02-01T10:46:36;15.93;;;3.38;;
27666;SDS011;15074;50.940;5.282;2023-02-01T10:49:04;8.75;;;2.85;;
27666;SDS011;15074;50.940;5.282;2023-02-01T10:51:45;9.88;;;3.53;;
27666;SDS011;15074;50.940;5.282;2023-02-01T10:54:20;13.23;;;4.03;;
27666;SDS011;15074;50.940;5.282;2023-02-01T10:56:56;9.68;;;3.42;;
27666;SDS011;15074;50.940;5.282;2023-02-01T10:59:23;6.95;;;2.97;;
27666;SDS011;15074;50.940;5.282;2023-02-01T11:01:50;7.78;;;2.53;;
27666;SDS011;15074;50.940;5.282;2023-02-01T11:04:24;10.18;;;3.13;;
27666;SDS011;15074;50.940;5.282;2023-02-01T11:07:05;7.97;;;3.38;;
27666;SDS011;15074;50.940;5.282;2023-02-01T11:09:38;8.75;;;3.22;;
27666;SDS011;15074;50.940;5.282;2023-02-01T11:12:09;10.52;;;2.20;;
27666;SDS011;15074;50.940;5.282;2023-02-01T11:14:55;14.38;;;2.55;;
27666;SDS011;15074;50.940;5.282;2023-02-01T11:17:25;7.82;;;2.70;;
27666;SDS011;15074;50.940;5.282;2023-02-01T11:19:58;6.82;;;2.45;;
27666;SDS011;15074;50.940;5.282;2023-02-01T11:22:26;7.32;;;2.78;;
27666;SDS011;15074;50.940;5.282;2023-02-01T11:24:54;6.03;;;2.25;;
27666;SDS011;15074;50.940;5.282;2023-02-01T11:27:21;6.78;;;2.20;;
27666;SDS011;15074;50.940;5.282;2023-02-01T11:29:50;7.82;;;2.67;;
27666;SDS011;15074;50.940;5.282;2023-02-01T11:32:20;14.57;;;2.78;;
27666;SDS011;15074;50.940;5.282;2023-02-01T11:34:56;6.65;;;2.22;;
27666;SDS011;15074;50.940;5.282;2023-02-01T11:37:34;21.00;;;2.92;;
27666;SDS011;15074;50.940;5.282;2023-02-01T11:40:26;7.78;;;2.30;;
27666;SDS011;15074;50.940;5.282;2023-02-01T11:43:51;12.27;;;2.67;;
27666;SDS011;15074;50.940;5.282;2023-02-01T11:45:59;7.60;;;2.17;;
27666;SDS011;15074;50.940;5.282;2023-02-01T11:48:28;8.25;;;2.22;;
27666;SDS011;15074;50.940;5.282;2023-02-01T11:51:11;8.38;;;2.40;;
27666;SDS011;15074;50.940;5.282;2023-02-01T12:09:42;11.05;;;2.92;;
27666;SDS011;15074;50.940;5.282;2023-02-01T12:32:07;7.70;;;2.00;;
27666;SDS011;15074;50.940;5.282;2023-02-01T12:37:48;5.95;;;2.08;;
27666;SDS011;15074;50.940;5.282;2023-02-01T12:40:31;11.60;;;2.50;;
27666;SDS011;15074;50.940;5.282;2023-02-01T12:43:01;5.30;;;1.88;;
27666;SDS011;15074;50.940;5.282;2023-02-01T12:45:45;10.07;;;2.13;;
27666;SDS011;15074;50.940;5.282;2023-02-01T12:51:09;10.40;;;2.90;;
27666;SDS011;15074;50.940;5.282;2023-02-01T12:53:46;8.65;;;1.80;;
27666;SDS011;15074;50.940;5.282;2023-02-01T12:56:23;13.90;;;2.03;;
27666;SDS011;15074;50.940;5.282;2023-02-01T12:59:00;8.38;;;2.10;;
27666;SDS011;15074;50.940;5.282;2023-02-01T13:01:36;7.80;;;2.00;;
27666;SDS011;15074;50.940;5.282;2023-02-01T13:07:16;11.57;;;2.08;;
27666;SDS011;15074;50.940;5.282;2023-02-01T13:09:51;9.45;;;1.65;;
27666;SDS011;15074;50.940;5.282;2023-02-01T13:14:54;11.35;;;2.92;;
27666;SDS011;15074;50.940;5.282;2023-02-01T13:17:29;14.60;;;2.70;;
27666;SDS011;15074;50.940;5.282;2023-02-01T13:22:34;7.22;;;2.00;;
27666;SDS011;15074;50.940;5.282;2023-02-01T13:25:27;11.82;;;2.17;;
27666;SDS011;15074;50.940;5.282;2023-02-01T13:28:24;9.13;;;2.35;;
27666;SDS011;15074;50.940;5.282;2023-02-01T13:38:59;6.53;;;1.77;;
27666;SDS011;15074;50.940;5.282;2023-02-01T13:41:31;10.10;;;2.58;;
27666;SDS011;15074;50.940;5.282;2023-02-01T13:44:05;10.10;;;1.95;;
27666;SDS011;15074;50.940;5.282;2023-02-01T13:46:43;7.55;;;2.60;;
27666;SDS011;15074;50.940;5.282;2023-02-01T13:49:22;7.05;;;2.17;;
27666;SDS011;15074;50.940;5.282;2023-02-01T13:51:51;9.52;;;3.17;;
27666;SDS011;15074;50.940;5.282;2023-02-01T13:57:02;7.07;;;2.47;;
27666;SDS011;15074;50.940;5.282;2023-02-01T14:08:02;8.63;;;2.63;;
27666;SDS011;15074;50.940;5.282;2023-02-01T14:11:01;5.93;;;2.03;;
27666;SDS011;15074;50.940;5.282;2023-02-01T14:13:40;5.80;;;2.80;;
27666;SDS011;15074;50.940;5.282;2023-02-01T14:23:44;12.13;;;3.20;;
27666;SDS011;15074;50.940;5.282;2023-02-01T14:26:13;3.92;;;1.40;;
27666;SDS011;15074;50.940;5.282;2023-02-01T14:28:45;9.43;;;1.90;;
27666;SDS011;15074;50.940;5.282;2023-02-01T14:31:37;7.97;;;2.40;;
27666;SDS011;15074;50.940;5.282;2023-02-01T14:34:14;5.70;;;2.33;;
27666;SDS011;15074;50.940;5.282;2023-02-01T14:36:44;6.00;;;1.52;;
27666;SDS011;15074;50.940;5.282;2023-02-01T14:39:27;15.57;;;2.40;;
27666;SDS011;15074;50.940;5.282;2023-02-01T14:41:57;10.90;;;2.63;;
27666;SDS011;15074;50.940;5.282;2023-02-01T14:44:27;9.15;;;2.00;;
27666;SDS011;15074;50.940;5.282;2023-02-01T14:47:06;7.10;;;1.52;;
27666;SDS011;15074;50.940;5.282;2023-02-01T14:52:06;10.30;;;2.33;;
27666;SDS011;15074;50.940;5.282;2023-02-01T14:54:39;9.10;;;2.20;;
27666;SDS011;15074;50.940;5.282;2023-02-01T14:57:05;11.30;;;1.92;;
27666;SDS011;15074;50.940;5.282;2023-02-01T14:59:40;6.43;;;1.65;;
27666;SDS011;15074;50.940;5.282;2023-02-01T15:02:17;5.55;;;1.90;;
27666;SDS011;15074;50.940;5.282;2023-02-01T15:04:53;6.10;;;1.80;;
27666;SDS011;15074;50.940;5.282;2023-02-01T15:07:23;10.02;;;1.50;;
27666;SDS011;15074;50.940;5.282;2023-02-01T15:09:51;6.13;;;1.73;;
27666;SDS011;15074;50.940;5.282;2023-02-01T15:12:24;6.88;;;1.80;;
27666;SDS011;15074;50.940;5.282;2023-02-01T15:17:37;7.35;;;1.60;;
27666;SDS011;15074;50.940;5.282;2023-02-01T15:20:12;8.15;;;2.05;;
27666;SDS011;15074;50.940;5.282;2023-02-01T15:22:51;6.25;;;1.70;;
27666;SDS011;15074;50.940;5.282;2023-02-01T15:25:26;5.95;;;1.83;;
27666;SDS011;15074;50.940;5.282;2023-02-01T15:27:53;7.93;;;2.00;;
27666;SDS011;15074;50.940;5.282;2023-02-01T15:30:23;6.15;;;1.92;;
27666;SDS011;15074;50.940;5.282;2023-02-01T15:32:52;5.35;;;1.60;;
27666;SDS011;15074;50.940;5.282;2023-02-01T15:35:37;6.55;;;3.00;;
27666;SDS011;15074;50.940;5.282;2023-02-01T15:43:35;9.27;;;2.30;;
27666;SDS011;15074;50.940;5.282;2023-02-01T15:49:04;6.63;;;1.52;;
27666;SDS011;15074;50.940;5.282;2023-02-01T15:51:43;8.95;;;1.83;;
27666;SDS011;15074;50.940;5.282;2023-02-01T15:54:17;12.70;;;1.95;;
27666;SDS011;15074;50.940;5.282;2023-02-01T15:57:06;10.68;;;2.83;;
27666;SDS011;15074;50.940;5.282;2023-02-01T15:59:35;9.60;;;2.85;;
27666;SDS011;15074;50.940;5.282;2023-02-01T16:02:23;9.20;;;2.53;;
27666;SDS011;15074;50.940;5.282;2023-02-01T16:04:50;7.38;;;2.45;;
27666;SDS011;15074;50.940;5.282;2023-02-01T16:07:25;13.00;;;2.85;;
27666;SDS011;15074;50.940;5.282;2023-02-01T16:09:55;7.03;;;2.22;;
27666;SDS011;15074;50.940;5.282;2023-02-01T16:15:04;10.90;;;2.92;;
27666;SDS011;15074;50.940;5.282;2023-02-01T16:17:30;19.30;;;3.15;;
27666;SDS011;15074;50.940;5.282;2023-02-01T16:19:56;8.73;;;2.03;;
27666;SDS011;15074;50.940;5.282;2023-02-01T16:22:23;12.70;;;2.80;;
27666;SDS011;15074;50.940;5.282;2023-02-01T16:24:49;8.95;;;2.67;;
27666;SDS011;15074;50.940;5.282;2023-02-01T16:27:14;6.55;;;2.42;;
27666;SDS011;15074;50.940;5.282;2023-02-01T16:29:40;9.57;;;2.35;;
27666;SDS011;15074;50.940;5.282;2023-02-01T16:32:06;12.82;;;2.75;;
27666;SDS011;15074;50.940;5.282;2023-02-01T16:34:39;12.13;;;2.30;;
27666;SDS011;15074;50.940;5.282;2023-02-01T16:37:05;6.50;;;2.05;;
27666;SDS011;15074;50.940;5.282;2023-02-01T16:39:34;8.05;;;3.72;;
27666;SDS011;15074;50.940;5.282;2023-02-01T16:42:00;10.15;;;3.17;;
27666;SDS011;15074;50.940;5.282;2023-02-01T16:44:30;15.20;;;3.55;;
27666;SDS011;15074;50.940;5.282;2023-02-01T16:46:55;12.57;;;2.70;;
27666;SDS011;15074;50.940;5.282;2023-02-01T16:49:22;10.88;;;2.30;;
27666;SDS011;15074;50.940;5.282;2023-02-01T16:51:49;6.57;;;1.95;;
27666;SDS011;15074;50.940;5.282;2023-02-01T16:54:18;9.23;;;2.15;;
27666;SDS011;15074;50.940;5.282;2023-02-01T16:56:44;9.40;;;2.92;;
27666;SDS011;15074;50.940;5.282;2023-02-01T16:59:11;13.73;;;3.83;;
27666;SDS011;15074;50.940;5.282;2023-02-01T17:01:37;9.70;;;3.13;;
27666;SDS011;15074;50.940;5.282;2023-02-01T17:04:03;10.85;;;2.78;;
27666;SDS011;15074;50.940;5.282;2023-02-01T17:06:29;9.98;;;3.15;;
27666;SDS011;15074;50.940;5.282;2023-02-01T17:08:57;14.25;;;2.65;;
27666;SDS011;15074;50.940;5.282;2023-02-01T17:11:24;7.47;;;2.42;;
27666;SDS011;15074;50.940;5.282;2023-02-01T17:13:51;5.53;;;2.30;;
27666;SDS011;15074;50.940;5.282;2023-02-01T17:18:43;12.10;;;2.90;;
27666;SDS011;15074;50.940;5.282;2023-02-01T17:21:11;7.18;;;3.10;;
27666;SDS011;15074;50.940;5.282;2023-02-01T17:23:37;9.00;;;3.15;;
27666;SDS011;15074;50.940;5.282;2023-02-01T17:26:03;7.80;;;3.28;;
27666;SDS011;15074;50.940;5.282;2023-02-01T17:28:29;11.35;;;3.97;;
27666;SDS011;15074;50.940;5.282;2023-02-01T17:30:55;9.65;;;2.78;;
27666;SDS011;15074;50.940;5.282;2023-02-01T17:35:58;17.40;;;2.80;;
27666;SDS011;15074;50.940;5.282;2023-02-01T17:38:24;7.72;;;3.10;;
27666;SDS011;15074;50.940;5.282;2023-02-01T17:40:50;21.77;;;3.10;;
27666;SDS011;15074;50.940;5.282;2023-02-01T17:43:20;9.70;;;2.85;;
27666;SDS011;15074;50.940;5.282;2023-02-01T17:45:49;14.00;;;3.05;;
27666;SDS011;15074;50.940;5.282;2023-02-01T17:48:19;10.25;;;2.40;;
27666;SDS011;15074;50.940;5.282;2023-02-01T17:50:46;9.63;;;3.15;;
27666;SDS011;15074;50.940;5.282;2023-02-01T17:53:14;9.68;;;2.65;;
27666;SDS011;15074;50.940;5.282;2023-02-01T17:55:42;10.32;;;3.03;;
27666;SDS011;15074;50.940;5.282;2023-02-01T17:58:10;14.20;;;3.28;;
27666;SDS011;15074;50.940;5.282;2023-02-01T18:00:37;16.00;;;5.47;;
27666;SDS011;15074;50.940;5.282;2023-02-01T18:03:04;10.53;;;3.70;;
27666;SDS011;15074;50.940;5.282;2023-02-01T18:05:38;9.50;;;3.08;;
27666;SDS011;15074;50.940;5.282;2023-02-01T18:08:05;10.65;;;3.72;;
27666;SDS011;15074;50.940;5.282;2023-02-01T18:10:31;18.00;;;3.90;;
27666;SDS011;15074;50.940;5.282;2023-02-01T18:12:57;10.98;;;5.32;;
27666;SDS011;15074;50.940;5.282;2023-02-01T18:15:23;21.25;;;6.63;;
27666;SDS011;15074;50.940;5.282;2023-02-01T18:17:50;31.50;;;9.53;;
27666;SDS011;15074;50.940;5.282;2023-02-01T18:20:20;11.27;;;5.07;;
27666;SDS011;15074;50.940;5.282;2023-02-01T18:22:49;17.02;;;6.28;;
27666;SDS011;15074;50.940;5.282;2023-02-01T18:25:22;15.20;;;6.30;;
27666;SDS011;15074;50.940;5.282;2023-02-01T18:27:52;11.45;;;4.63;;
27666;SDS011;15074;50.940;5.282;2023-02-01T18:30:23;15.02;;;4.28;;
27666;SDS011;15074;50.940;5.282;2023-02-01T18:32:54;11.60;;;3.42;;
27666;SDS011;15074;50.940;5.282;2023-02-01T18:35:22;11.25;;;2.83;;
27666;SDS011;15074;50.940;5.282;2023-02-01T18:37:49;14.48;;;6.03;;
27666;SDS011;15074;50.940;5.282;2023-02-01T18:40:18;10.93;;;4.07;;
27666;SDS011;15074;50.940;5.282;2023-02-01T18:42:45;16.05;;;6.07;;
27666;SDS011;15074;50.940;5.282;2023-02-01T18:48:03;14.23;;;3.88;;
27666;SDS011;15074;50.940;5.282;2023-02-01T18:50:30;18.75;;;5.15;;
27666;SDS011;15074;50.940;5.282;2023-02-01T18:52:58;13.93;;;3.75;;
27666;SDS011;15074;50.940;5.282;2023-02-01T18:55:25;12.30;;;4.28;;
27666;SDS011;15074;50.940;5.282;2023-02-01T18:57:52;12.02;;;3.08;;
27666;SDS011;15074;50.940;5.282;2023-02-01T19:00:18;9.73;;;3.08;;
27666;SDS011;15074;50.940;5.282;2023-02-01T19:02:45;12.77;;;3.63;;
27666;SDS011;15074;50.940;5.282;2023-02-01T19:05:12;17.48;;;6.10;;
27666;SDS011;15074;50.940;5.282;2023-02-01T19:07:39;9.75;;;5.20;;
27666;SDS011;15074;50.940;5.282;2023-02-01T19:10:06;11.00;;;4.20;;
27666;SDS011;15074;50.940;5.282;2023-02-01T19:12:34;15.98;;;3.63;;
27666;SDS011;15074;50.940;5.282;2023-02-01T19:15:01;8.18;;;2.45;;
27666;SDS011;15074;50.940;5.282;2023-02-01T19:17:27;12.63;;;3.38;;
27666;SDS011;15074;50.940;5.282;2023-02-01T19:19:53;14.30;;;3.58;;
27666;SDS011;15074;50.940;5.282;2023-02-01T19:22:19;11.95;;;5.30;;
27666;SDS011;15074;50.940;5.282;2023-02-01T19:24:45;14.30;;;3.08;;
27666;SDS011;15074;50.940;5.282;2023-02-01T19:27:10;24.80;;;4.18;;
27666;SDS011;15074;50.940;5.282;2023-02-01T19:29:36;8.93;;;3.28;;
27666;SDS011;15074;50.940;5.282;2023-02-01T19:32:03;11.82;;;3.50;;
27666;SDS011;15074;50.940;5.282;2023-02-01T19:34:29;11.10;;;3.33;;